sensor_id;sensor_type;location;lat;lon;timestamp;temperature;humidity
35085;SHT85;21267;51.032;6.998;2024-02-21T00:00:55;9.97;81.27
35085;SHT85;21267;51.032;6.998;2024-02-21T00:03:21;10.02;81.33
35085;SHT85;21267;51.032;6.998;2024-02-21T00:05:48;9.99;81.24
35085;SHT85;21267;51.032;6.998;2024-02-21T00:08:16;9.95;81.33
35085;SHT85;21267;51.032;6.998;2024-02-21T00:10:43;9.91;81.47
35085;SHT85;21267;51.032;6.998;2024-02-21T00:13:09;10.03;81.19
35085;SHT85;21267;51.032;6.998;2024-02-21T00:15:37;10.08;81.25
35085;SHT85;21267;51.032;6.998;2024-02-21T00:18:04;10.02;81.38
35085;SHT85;21267;51.032;6.998;2024-02-21T00:20:31;9.95;81.57
35085;SHT85;21267;51.032;6.998;2024-02-21T00:22:58;10.03;81.44
35085;SHT85;21267;51.032;6.998;2024-02-21T00:25:25;9.99;81.68
35085;SHT85;21267;51.032;6.998;2024-02-21T00:27:52;9.95;81.71
35085;SHT85;21267;51.032;6.998;2024-02-21T00:30:21;9.98;81.60
35085;SHT85;21267;51.032;6.998;2024-02-21T00:32:47;9.97;81.81
35085;SHT85;21267;51.032;6.998;2024-02-21T00:35:14;9.97;81.65
35085;SHT85;21267;51.032;6.998;2024-02-21T00:37:41;9.99;81.81
35085;SHT85;21267;51.032;6.998;2024-02-21T00:40:09;9.94;81.97
35085;SHT85;21267;51.032;6.998;2024-02-21T00:42:36;9.91;82.08
35085;SHT85;21267;51.032;6.998;2024-02-21T00:45:03;9.91;82.18
35085;SHT85;21267;51.032;6.998;2024-02-21T00:47:30;9.87;82.33
35085;SHT85;21267;51.032;6.998;2024-02-21T00:49:57;9.85;82.39
35085;SHT85;21267;51.032;6.998;2024-02-21T00:52:24;9.85;82.44
35085;SHT85;21267;51.032;6.998;2024-02-21T00:54:51;9.87;82.61
35085;SHT85;21267;51.032;6.998;2024-02-21T01:01:38;9.88;82.70
35085;SHT85;21267;51.032;6.998;2024-02-21T01:04:09;9.95;82.52
35085;SHT85;21267;51.032;6.998;2024-02-21T01:06:37;9.91;82.52
35085;SHT85;21267;51.032;6.998;2024-02-21T01:09:04;9.91;82.70
35085;SHT85;21267;51.032;6.998;2024-02-21T01:11:30;9.74;83.07
35085;SHT85;21267;51.032;6.998;2024-02-21T01:13:57;9.90;82.81
35085;SHT85;21267;51.032;6.998;2024-02-21T01:16:25;9.91;82.59
35085;SHT85;21267;51.032;6.998;2024-02-21T01:18:52;9.91;82.91
35085;SHT85;21267;51.032;6.998;2024-02-21T01:21:19;9.92;82.67
35085;SHT85;21267;51.032;6.998;2024-02-21T01:23:46;9.95;82.80
35085;SHT85;21267;51.032;6.998;2024-02-21T01:26:13;9.84;83.17
35085;SHT85;21267;51.032;6.998;2024-02-21T01:28:42;9.92;82.73
35085;SHT85;21267;51.032;6.998;2024-02-21T01:31:09;9.91;82.82
35085;SHT85;21267;51.032;6.998;2024-02-21T01:33:36;9.94;82.72
35085;SHT85;21267;51.032;6.998;2024-02-21T01:36:04;9.92;82.70
35085;SHT85;21267;51.032;6.998;2024-02-21T01:38:33;9.90;82.77
35085;SHT85;21267;51.032;6.998;2024-02-21T01:41:00;9.88;82.77
35085;SHT85;21267;51.032;6.998;2024-02-21T01:43:27;9.94;82.69
35085;SHT85;21267;51.032;6.998;2024-02-21T01:45:55;9.82;82.88
35085;SHT85;21267;51.032;6.998;2024-02-21T01:48:23;9.84;82.95
35085;SHT85;21267;51.032;6.998;2024-02-21T01:50:51;9.90;83.12
35085;SHT85;21267;51.032;6.998;2024-02-21T01:53:25;9.90;83.18
35085;SHT85;21267;51.032;6.998;2024-02-21T01:55:53;9.91;82.83
35085;SHT85;21267;51.032;6.998;2024-02-21T01:58:21;9.90;83.11
35085;SHT85;21267;51.032;6.998;2024-02-21T02:00:48;9.91;82.98
35085;SHT85;21267;51.032;6.998;2024-02-21T02:03:15;9.87;83.14
35085;SHT85;21267;51.032;6.998;2024-02-21T02:05:46;9.90;83.20
35085;SHT85;21267;51.032;6.998;2024-02-21T02:08:13;9.94;82.98
35085;SHT85;21267;51.032;6.998;2024-02-21T02:10:41;9.90;82.81
35085;SHT85;21267;51.032;6.998;2024-02-21T02:13:09;9.88;82.98
35085;SHT85;21267;51.032;6.998;2024-02-21T02:15:43;9.92;82.91
35085;SHT85;21267;51.032;6.998;2024-02-21T02:18:11;9.88;82.92
35085;SHT85;21267;51.032;6.998;2024-02-21T02:20:38;9.92;82.89
35085;SHT85;21267;51.032;6.998;2024-02-21T02:25:33;9.84;83.30
35085;SHT85;21267;51.032;6.998;2024-02-21T02:28:00;9.88;83.16
35085;SHT85;21267;51.032;6.998;2024-02-21T02:30:26;9.88;83.19
35085;SHT85;21267;51.032;6.998;2024-02-21T02:32:53;9.88;82.69
35085;SHT85;21267;51.032;6.998;2024-02-21T02:35:20;9.82;82.82
35085;SHT85;21267;51.032;6.998;2024-02-21T02:37:49;9.81;82.95
35085;SHT85;21267;51.032;6.998;2024-02-21T02:40:18;9.91;82.88
35085;SHT85;21267;51.032;6.998;2024-02-21T02:42:45;9.88;83.12
35085;SHT85;21267;51.032;6.998;2024-02-21T02:45:13;9.84;83.26
35085;SHT85;21267;51.032;6.998;2024-02-21T02:47:40;9.94;83.13
35085;SHT85;21267;51.032;6.998;2024-02-21T02:50:07;9.85;83.15
35085;SHT85;21267;51.032;6.998;2024-02-21T02:52:34;9.90;82.96
35085;SHT85;21267;51.032;6.998;2024-02-21T02:55:01;9.84;82.63
35085;SHT85;21267;51.032;6.998;2024-02-21T02:57:28;9.84;83.00
35085;SHT85;21267;51.032;6.998;2024-02-21T02:59:55;9.81;83.26
35085;SHT85;21267;51.032;6.998;2024-02-21T03:02:23;9.74;83.10
35085;SHT85;21267;51.032;6.998;2024-02-21T03:04:50;9.70;83.17
35085;SHT85;21267;51.032;6.998;2024-02-21T03:07:17;9.70;83.20
35085;SHT85;21267;51.032;6.998;2024-02-21T03:09:44;9.67;83.26
35085;SHT85;21267;51.032;6.998;2024-02-21T03:12:11;9.75;83.14
35085;SHT85;21267;51.032;6.998;2024-02-21T03:14:38;9.63;83.40
35085;SHT85;21267;51.032;6.998;2024-02-21T03:17:05;9.63;83.44
35085;SHT85;21267;51.032;6.998;2024-02-21T03:19:32;9.57;83.43
35085;SHT85;21267;51.032;6.998;2024-02-21T03:22:02;9.54;83.49
35085;SHT85;21267;51.032;6.998;2024-02-21T03:24:31;9.53;83.63
35085;SHT85;21267;51.032;6.998;2024-02-21T03:26:58;9.51;83.77
35085;SHT85;21267;51.032;6.998;2024-02-21T03:29:25;9.43;84.23
35085;SHT85;21267;51.032;6.998;2024-02-21T03:31:52;9.34;84.45
35085;SHT85;21267;51.032;6.998;2024-02-21T03:34:19;9.30;84.62
35085;SHT85;21267;51.032;6.998;2024-02-21T03:36:46;9.24;84.84
35085;SHT85;21267;51.032;6.998;2024-02-21T03:39:13;9.24;84.76
35085;SHT85;21267;51.032;6.998;2024-02-21T03:41:39;9.19;84.91
35085;SHT85;21267;51.032;6.998;2024-02-21T03:44:06;9.20;84.93
35085;SHT85;21267;51.032;6.998;2024-02-21T03:46:33;9.22;84.93
35085;SHT85;21267;51.032;6.998;2024-02-21T03:49:00;9.18;85.01
35085;SHT85;21267;51.032;6.998;2024-02-21T03:51:27;9.15;85.20
35085;SHT85;21267;51.032;6.998;2024-02-21T03:53:54;9.19;84.84
35085;SHT85;21267;51.032;6.998;2024-02-21T03:56:21;9.20;84.98
35085;SHT85;21267;51.032;6.998;2024-02-21T03:58:48;9.23;84.86
35085;SHT85;21267;51.032;6.998;2024-02-21T04:01:16;9.29;84.46
35085;SHT85;21267;51.032;6.998;2024-02-21T04:03:44;9.24;84.24
35085;SHT85;21267;51.032;6.998;2024-02-21T04:06:11;9.33;83.88
35085;SHT85;21267;51.032;6.998;2024-02-21T04:08:38;9.39;83.58
35085;SHT85;21267;51.032;6.998;2024-02-21T04:11:05;9.39;83.61
35085;SHT85;21267;51.032;6.998;2024-02-21T04:13:32;9.40;83.51
35085;SHT85;21267;51.032;6.998;2024-02-21T04:15:59;9.36;83.79
35085;SHT85;21267;51.032;6.998;2024-02-21T04:18:27;9.43;83.81
35085;SHT85;21267;51.032;6.998;2024-02-21T04:20:55;9.40;83.62
35085;SHT85;21267;51.032;6.998;2024-02-21T04:23:21;9.37;83.88
35085;SHT85;21267;51.032;6.998;2024-02-21T04:25:48;9.39;83.77
35085;SHT85;21267;51.032;6.998;2024-02-21T04:28:15;9.36;83.85
35085;SHT85;21267;51.032;6.998;2024-02-21T04:30:42;9.37;83.94
35085;SHT85;21267;51.032;6.998;2024-02-21T04:33:09;9.29;84.40
35085;SHT85;21267;51.032;6.998;2024-02-21T04:35:36;9.26;84.36
35085;SHT85;21267;51.032;6.998;2024-02-21T04:38:03;9.27;84.41
35085;SHT85;21267;51.032;6.998;2024-02-21T04:40:30;9.23;84.48
35085;SHT85;21267;51.032;6.998;2024-02-21T04:42:58;9.20;84.67
35085;SHT85;21267;51.032;6.998;2024-02-21T04:45:25;9.18;84.95
35085;SHT85;21267;51.032;6.998;2024-02-21T04:47:51;9.26;84.80
35085;SHT85;21267;51.032;6.998;2024-02-21T04:50:18;9.16;84.82
35085;SHT85;21267;51.032;6.998;2024-02-21T04:52:45;9.20;84.81
35085;SHT85;21267;51.032;6.998;2024-02-21T04:55:12;9.18;84.85
35085;SHT85;21267;51.032;6.998;2024-02-21T04:57:39;9.19;84.89
35085;SHT85;21267;51.032;6.998;2024-02-21T05:00:07;9.16;85.07
35085;SHT85;21267;51.032;6.998;2024-02-21T05:02:34;9.15;85.05
35085;SHT85;21267;51.032;6.998;2024-02-21T05:05:00;9.15;85.11
35085;SHT85;21267;51.032;6.998;2024-02-21T05:07:27;9.13;85.03
35085;SHT85;21267;51.032;6.998;2024-02-21T05:09:54;9.08;85.26
35085;SHT85;21267;51.032;6.998;2024-02-21T05:12:21;9.03;85.36
35085;SHT85;21267;51.032;6.998;2024-02-21T05:14:48;9.08;85.29
35085;SHT85;21267;51.032;6.998;2024-02-21T05:17:15;9.06;85.16
35085;SHT85;21267;51.032;6.998;2024-02-21T05:19:43;9.01;85.19
35085;SHT85;21267;51.032;6.998;2024-02-21T05:22:11;9.02;85.31
35085;SHT85;21267;51.032;6.998;2024-02-21T05:24:39;8.96;85.29
35085;SHT85;21267;51.032;6.998;2024-02-21T05:27:06;9.03;85.39
35085;SHT85;21267;51.032;6.998;2024-02-21T05:29:33;9.01;85.32
35085;SHT85;21267;51.032;6.998;2024-02-21T05:32:00;9.02;85.19
35085;SHT85;21267;51.032;6.998;2024-02-21T05:34:31;9.02;85.30
35085;SHT85;21267;51.032;6.998;2024-02-21T05:36:59;8.96;85.33
35085;SHT85;21267;51.032;6.998;2024-02-21T05:39:27;9.01;85.46
35085;SHT85;21267;51.032;6.998;2024-02-21T05:41:56;8.99;85.32
35085;SHT85;21267;51.032;6.998;2024-02-21T05:44:23;8.93;85.60
35085;SHT85;21267;51.032;6.998;2024-02-21T05:46:50;8.96;85.55
35085;SHT85;21267;51.032;6.998;2024-02-21T05:49:16;8.93;85.66
35085;SHT85;21267;51.032;6.998;2024-02-21T05:51:43;8.95;85.52
35085;SHT85;21267;51.032;6.998;2024-02-21T05:54:10;8.99;85.42
35085;SHT85;21267;51.032;6.998;2024-02-21T05:56:37;9.02;85.11
35085;SHT85;21267;51.032;6.998;2024-02-21T05:59:04;8.96;85.22
35085;SHT85;21267;51.032;6.998;2024-02-21T06:01:31;9.08;84.83
35085;SHT85;21267;51.032;6.998;2024-02-21T06:03:58;9.11;84.82
35085;SHT85;21267;51.032;6.998;2024-02-21T06:06:28;9.03;84.77
35085;SHT85;21267;51.032;6.998;2024-02-21T06:08:55;9.20;84.04
35085;SHT85;21267;51.032;6.998;2024-02-21T06:11:22;9.48;83.09
35085;SHT85;21267;51.032;6.998;2024-02-21T06:13:49;9.57;81.25
35085;SHT85;21267;51.032;6.998;2024-02-21T06:16:16;9.58;81.16
35085;SHT85;21267;51.032;6.998;2024-02-21T06:18:43;9.67;79.98
35085;SHT85;21267;51.032;6.998;2024-02-21T06:21:10;9.61;80.00
35085;SHT85;21267;51.032;6.998;2024-02-21T06:23:38;9.60;80.27
35085;SHT85;21267;51.032;6.998;2024-02-21T06:26:05;9.67;80.14
35085;SHT85;21267;51.032;6.998;2024-02-21T06:28:32;9.67;80.06
35085;SHT85;21267;51.032;6.998;2024-02-21T06:30:59;9.69;80.03
35085;SHT85;21267;51.032;6.998;2024-02-21T06:33:26;9.61;80.06
35085;SHT85;21267;51.032;6.998;2024-02-21T06:35:53;9.58;80.13
35085;SHT85;21267;51.032;6.998;2024-02-21T06:38:20;9.60;80.37
35085;SHT85;21267;51.032;6.998;2024-02-21T06:40:47;9.60;80.41
35085;SHT85;21267;51.032;6.998;2024-02-21T06:43:17;9.65;80.31
35085;SHT85;21267;51.032;6.998;2024-02-21T06:45:45;9.63;80.21
35085;SHT85;21267;51.032;6.998;2024-02-21T06:48:18;9.60;80.34
35085;SHT85;21267;51.032;6.998;2024-02-21T06:50:46;9.55;80.76
35085;SHT85;21267;51.032;6.998;2024-02-21T06:53:13;9.53;81.56
35085;SHT85;21267;51.032;6.998;2024-02-21T06:55:40;9.53;81.91
35085;SHT85;21267;51.032;6.998;2024-02-21T06:58:07;9.50;82.12
35085;SHT85;21267;51.032;6.998;2024-02-21T07:00:39;9.43;82.38
35085;SHT85;21267;51.032;6.998;2024-02-21T07:03:07;9.40;82.64
35085;SHT85;21267;51.032;6.998;2024-02-21T07:05:34;9.40;82.64
35085;SHT85;21267;51.032;6.998;2024-02-21T07:08:01;9.33;82.91
35085;SHT85;21267;51.032;6.998;2024-02-21T07:10:28;9.36;82.43
35085;SHT85;21267;51.032;6.998;2024-02-21T07:12:58;9.33;82.74
35085;SHT85;21267;51.032;6.998;2024-02-21T07:15:26;9.30;82.92
35085;SHT85;21267;51.032;6.998;2024-02-21T07:17:55;9.29;83.27
35085;SHT85;21267;51.032;6.998;2024-02-21T07:20:22;9.39;83.34
35085;SHT85;21267;51.032;6.998;2024-02-21T07:22:49;9.39;83.54
35085;SHT85;21267;51.032;6.998;2024-02-21T07:25:16;9.39;83.62
35085;SHT85;21267;51.032;6.998;2024-02-21T07:27:44;9.34;83.75
35085;SHT85;21267;51.032;6.998;2024-02-21T07:33:38;9.37;83.26
35085;SHT85;21267;51.032;6.998;2024-02-21T07:36:07;9.39;83.25
35085;SHT85;21267;51.032;6.998;2024-02-21T07:38:34;9.34;83.29
35085;SHT85;21267;51.032;6.998;2024-02-21T07:41:01;9.33;83.31
35085;SHT85;21267;51.032;6.998;2024-02-21T07:43:28;9.29;83.36
35085;SHT85;21267;51.032;6.998;2024-02-21T07:45:55;9.29;83.27
35085;SHT85;21267;51.032;6.998;2024-02-21T07:48:21;9.27;83.42
35085;SHT85;21267;51.032;6.998;2024-02-21T07:50:51;9.27;83.41
35085;SHT85;21267;51.032;6.998;2024-02-21T07:53:19;9.24;83.54
35085;SHT85;21267;51.032;6.998;2024-02-21T07:55:46;9.33;83.19
35085;SHT85;21267;51.032;6.998;2024-02-21T07:58:13;9.32;83.35
35085;SHT85;21267;51.032;6.998;2024-02-21T08:00:40;9.29;83.25
35085;SHT85;21267;51.032;6.998;2024-02-21T08:03:07;9.29;83.20
35085;SHT85;21267;51.032;6.998;2024-02-21T08:05:34;9.30;82.99
35085;SHT85;21267;51.032;6.998;2024-02-21T08:08:03;9.30;83.11
35085;SHT85;21267;51.032;6.998;2024-02-21T08:10:30;9.32;83.24
35085;SHT85;21267;51.032;6.998;2024-02-21T08:12:58;9.33;82.97
35085;SHT85;21267;51.032;6.998;2024-02-21T08:15:25;9.33;82.98
35085;SHT85;21267;51.032;6.998;2024-02-21T08:17:56;9.30;83.15
35085;SHT85;21267;51.032;6.998;2024-02-21T08:20:27;9.29;83.02
35085;SHT85;21267;51.032;6.998;2024-02-21T08:22:54;9.30;83.21
35085;SHT85;21267;51.032;6.998;2024-02-21T08:25:21;9.30;83.06
35085;SHT85;21267;51.032;6.998;2024-02-21T08:27:48;9.29;83.06
35085;SHT85;21267;51.032;6.998;2024-02-21T08:30:15;9.27;83.00
35085;SHT85;21267;51.032;6.998;2024-02-21T08:32:42;9.23;83.16
35085;SHT85;21267;51.032;6.998;2024-02-21T08:35:11;9.29;83.04
35085;SHT85;21267;51.032;6.998;2024-02-21T08:37:39;9.27;82.80
35085;SHT85;21267;51.032;6.998;2024-02-21T08:40:09;9.34;82.86
35085;SHT85;21267;51.032;6.998;2024-02-21T08:42:36;9.32;82.68
35085;SHT85;21267;51.032;6.998;2024-02-21T08:45:03;9.33;82.60
35085;SHT85;21267;51.032;6.998;2024-02-21T08:47:30;9.30;82.34
35085;SHT85;21267;51.032;6.998;2024-02-21T08:49:58;9.29;82.36
35085;SHT85;21267;51.032;6.998;2024-02-21T08:52:30;9.23;82.28
35085;SHT85;21267;51.032;6.998;2024-02-21T08:54:57;9.24;82.15
35085;SHT85;21267;51.032;6.998;2024-02-21T08:57:24;9.29;82.26
35085;SHT85;21267;51.032;6.998;2024-02-21T08:59:51;9.33;81.99
35085;SHT85;21267;51.032;6.998;2024-02-21T09:02:18;9.36;81.79
35085;SHT85;21267;51.032;6.998;2024-02-21T09:04:54;9.40;81.66
35085;SHT85;21267;51.032;6.998;2024-02-21T09:07:21;9.44;81.60
35085;SHT85;21267;51.032;6.998;2024-02-21T09:09:48;9.46;81.25
35085;SHT85;21267;51.032;6.998;2024-02-21T09:12:15;9.50;81.14
35085;SHT85;21267;51.032;6.998;2024-02-21T09:14:42;9.65;80.87
35085;SHT85;21267;51.032;6.998;2024-02-21T09:17:09;9.84;80.49
35085;SHT85;21267;51.032;6.998;2024-02-21T09:19:36;9.98;79.95
35085;SHT85;21267;51.032;6.998;2024-02-21T09:22:03;10.05;79.49
35085;SHT85;21267;51.032;6.998;2024-02-21T09:24:30;10.12;79.28
35085;SHT85;21267;51.032;6.998;2024-02-21T09:26:57;10.08;79.27
35085;SHT85;21267;51.032;6.998;2024-02-21T09:29:24;10.05;79.38
35085;SHT85;21267;51.032;6.998;2024-02-21T09:31:53;9.94;79.39
35085;SHT85;21267;51.032;6.998;2024-02-21T09:34:21;9.95;79.28
35085;SHT85;21267;51.032;6.998;2024-02-21T09:36:48;9.99;79.17
35085;SHT85;21267;51.032;6.998;2024-02-21T09:39:15;10.01;78.67
35085;SHT85;21267;51.032;6.998;2024-02-21T09:41:58;10.01;77.87
35085;SHT85;21267;51.032;6.998;2024-02-21T09:44:30;10.02;77.56
35085;SHT85;21267;51.032;6.998;2024-02-21T09:47:03;10.09;77.45
35085;SHT85;21267;51.032;6.998;2024-02-21T09:49:34;10.26;76.87
35085;SHT85;21267;51.032;6.998;2024-02-21T09:52:05;10.19;76.22
35085;SHT85;21267;51.032;6.998;2024-02-21T09:54:34;10.12;76.00
35085;SHT85;21267;51.032;6.998;2024-02-21T09:57:02;10.13;75.81
35085;SHT85;21267;51.032;6.998;2024-02-21T09:59:33;10.28;75.77
35085;SHT85;21267;51.032;6.998;2024-02-21T10:02:00;10.67;75.44
35085;SHT85;21267;51.032;6.998;2024-02-21T10:04:29;10.80;74.91
35085;SHT85;21267;51.032;6.998;2024-02-21T10:06:57;10.81;74.44
35085;SHT85;21267;51.032;6.998;2024-02-21T10:09:25;10.87;74.18
35085;SHT85;21267;51.032;6.998;2024-02-21T10:11:55;10.81;74.19
35085;SHT85;21267;51.032;6.998;2024-02-21T10:14:23;10.81;73.93
35085;SHT85;21267;51.032;6.998;2024-02-21T10:16:57;10.84;74.25
35085;SHT85;21267;51.032;6.998;2024-02-21T10:19:27;11.01;73.87
35085;SHT85;21267;51.032;6.998;2024-02-21T10:22:05;10.85;73.73
35085;SHT85;21267;51.032;6.998;2024-02-21T10:24:35;10.76;74.33
35085;SHT85;21267;51.032;6.998;2024-02-21T10:27:06;10.67;74.21
35085;SHT85;21267;51.032;6.998;2024-02-21T10:29:35;10.60;74.38
35085;SHT85;21267;51.032;6.998;2024-02-21T10:32:13;10.59;74.09
35085;SHT85;21267;51.032;6.998;2024-02-21T10:34:42;10.76;74.33
35085;SHT85;21267;51.032;6.998;2024-02-21T10:37:17;10.61;74.02
35085;SHT85;21267;51.032;6.998;2024-02-21T10:39:44;10.71;74.03
35085;SHT85;21267;51.032;6.998;2024-02-21T10:42:11;10.69;73.73
35085;SHT85;21267;51.032;6.998;2024-02-21T10:44:40;10.81;73.40
35085;SHT85;21267;51.032;6.998;2024-02-21T10:47:11;11.06;73.18
35085;SHT85;21267;51.032;6.998;2024-02-21T10:49:44;11.02;73.07
35085;SHT85;21267;51.032;6.998;2024-02-21T10:55:20;11.31;72.72
35085;SHT85;21267;51.032;6.998;2024-02-21T10:57:50;11.15;72.36
35085;SHT85;21267;51.032;6.998;2024-02-21T11:00:18;11.06;72.67
35085;SHT85;21267;51.032;6.998;2024-02-21T11:02:47;10.92;72.84
35085;SHT85;21267;51.032;6.998;2024-02-21T11:05:15;11.27;72.05
35085;SHT85;21267;51.032;6.998;2024-02-21T11:07:43;11.24;71.58
35085;SHT85;21267;51.032;6.998;2024-02-21T11:10:26;11.28;71.71
35085;SHT85;21267;51.032;6.998;2024-02-21T11:13:05;11.58;70.99
35085;SHT85;21267;51.032;6.998;2024-02-21T11:15:32;11.76;71.04
35085;SHT85;21267;51.032;6.998;2024-02-21T11:17:59;11.85;69.99
35085;SHT85;21267;51.032;6.998;2024-02-21T11:20:34;12.17;69.96
35085;SHT85;21267;51.032;6.998;2024-02-21T11:23:05;12.13;70.09
35085;SHT85;21267;51.032;6.998;2024-02-21T11:25:32;12.11;69.89
35085;SHT85;21267;51.032;6.998;2024-02-21T11:28:02;12.04;69.63
35085;SHT85;21267;51.032;6.998;2024-02-21T11:30:30;11.63;70.72
35085;SHT85;21267;51.032;6.998;2024-02-21T11:33:03;11.62;71.29
35085;SHT85;21267;51.032;6.998;2024-02-21T11:35:34;11.82;71.18
35085;SHT85;21267;51.032;6.998;2024-02-21T11:40:38;11.73;71.29
35085;SHT85;21267;51.032;6.998;2024-02-21T11:43:07;11.78;71.27
35085;SHT85;21267;51.032;6.998;2024-02-21T11:45:34;11.66;71.28
35085;SHT85;21267;51.032;6.998;2024-02-21T11:48:01;11.46;71.41
35085;SHT85;21267;51.032;6.998;2024-02-21T11:50:30;11.43;71.28
35085;SHT85;21267;51.032;6.998;2024-02-21T11:52:58;11.58;70.77
35085;SHT85;21267;51.032;6.998;2024-02-21T11:55:25;11.52;70.90
35085;SHT85;21267;51.032;6.998;2024-02-21T11:57:52;11.60;70.80
35085;SHT85;21267;51.032;6.998;2024-02-21T12:00:19;11.69;70.64
35085;SHT85;21267;51.032;6.998;2024-02-21T12:02:50;11.66;70.61
35085;SHT85;21267;51.032;6.998;2024-02-21T12:05:21;11.58;70.57
35085;SHT85;21267;51.032;6.998;2024-02-21T12:07:48;11.63;70.87
35085;SHT85;21267;51.032;6.998;2024-02-21T12:10:15;11.78;70.75
35085;SHT85;21267;51.032;6.998;2024-02-21T12:12:42;11.83;70.77
35085;SHT85;21267;51.032;6.998;2024-02-21T12:15:09;11.70;70.79
35085;SHT85;21267;51.032;6.998;2024-02-21T12:17:42;11.50;70.91
35085;SHT85;21267;51.032;6.998;2024-02-21T12:20:09;11.63;71.00
35085;SHT85;21267;51.032;6.998;2024-02-21T12:22:38;11.52;71.28
35085;SHT85;21267;51.032;6.998;2024-02-21T12:25:22;11.50;71.22
35085;SHT85;21267;51.032;6.998;2024-02-21T12:27:50;11.36;71.57
35085;SHT85;21267;51.032;6.998;2024-02-21T12:30:17;11.31;71.82
35085;SHT85;21267;51.032;6.998;2024-02-21T12:32:44;11.35;71.76
35085;SHT85;21267;51.032;6.998;2024-02-21T12:35:11;11.56;71.20
35085;SHT85;21267;51.032;6.998;2024-02-21T12:37:38;11.76;71.00
35085;SHT85;21267;51.032;6.998;2024-02-21T12:40:06;11.73;70.48
35085;SHT85;21267;51.032;6.998;2024-02-21T12:42:34;11.89;70.46
35085;SHT85;21267;51.032;6.998;2024-02-21T12:45:02;11.83;70.34
35085;SHT85;21267;51.032;6.998;2024-02-21T12:47:30;11.93;70.26
35085;SHT85;21267;51.032;6.998;2024-02-21T12:49:57;11.96;70.09
35085;SHT85;21267;51.032;6.998;2024-02-21T12:52:26;12.04;70.06
35085;SHT85;21267;51.032;6.998;2024-02-21T12:54:54;12.01;70.53
35085;SHT85;21267;51.032;6.998;2024-02-21T12:57:23;12.00;70.19
35085;SHT85;21267;51.032;6.998;2024-02-21T12:59:53;12.13;69.81
35085;SHT85;21267;51.032;6.998;2024-02-21T13:02:20;12.37;69.57
35085;SHT85;21267;51.032;6.998;2024-02-21T13:04:47;12.34;68.95
35085;SHT85;21267;51.032;6.998;2024-02-21T13:07:15;12.54;68.78
35085;SHT85;21267;51.032;6.998;2024-02-21T13:09:42;12.99;68.48
35085;SHT85;21267;51.032;6.998;2024-02-21T13:12:10;12.80;67.96
35085;SHT85;21267;51.032;6.998;2024-02-21T13:14:37;12.06;69.25
35085;SHT85;21267;51.032;6.998;2024-02-21T13:17:06;12.16;69.37
35085;SHT85;21267;51.032;6.998;2024-02-21T13:19:33;12.11;69.48
35085;SHT85;21267;51.032;6.998;2024-02-21T13:22:01;12.37;68.69
35085;SHT85;21267;51.032;6.998;2024-02-21T13:24:30;12.25;68.95
35085;SHT85;21267;51.032;6.998;2024-02-21T13:26:57;12.01;68.82
35085;SHT85;21267;51.032;6.998;2024-02-21T13:29:24;11.96;68.86
35085;SHT85;21267;51.032;6.998;2024-02-21T13:31:52;11.93;68.72
35085;SHT85;21267;51.032;6.998;2024-02-21T13:34:19;12.00;68.67
35085;SHT85;21267;51.032;6.998;2024-02-21T13:36:46;12.07;69.13
35085;SHT85;21267;51.032;6.998;2024-02-21T13:39:13;12.14;68.55
35085;SHT85;21267;51.032;6.998;2024-02-21T13:41:42;12.17;68.66
35085;SHT85;21267;51.032;6.998;2024-02-21T13:44:10;12.17;68.59
35085;SHT85;21267;51.032;6.998;2024-02-21T13:46:39;12.14;68.68
35085;SHT85;21267;51.032;6.998;2024-02-21T13:49:06;12.20;68.89
35085;SHT85;21267;51.032;6.998;2024-02-21T13:51:34;12.03;69.03
35085;SHT85;21267;51.032;6.998;2024-02-21T13:54:04;11.97;69.16
35085;SHT85;21267;51.032;6.998;2024-02-21T13:56:31;12.00;69.32
35085;SHT85;21267;51.032;6.998;2024-02-21T13:58:59;12.00;69.12
35085;SHT85;21267;51.032;6.998;2024-02-21T14:01:29;11.83;69.24
35085;SHT85;21267;51.032;6.998;2024-02-21T14:03:56;11.87;69.24
35085;SHT85;21267;51.032;6.998;2024-02-21T14:06:23;11.93;69.50
35085;SHT85;21267;51.032;6.998;2024-02-21T14:08:50;11.89;69.32
35085;SHT85;21267;51.032;6.998;2024-02-21T14:11:17;11.86;69.39
35085;SHT85;21267;51.032;6.998;2024-02-21T14:13:44;11.83;69.64
35085;SHT85;21267;51.032;6.998;2024-02-21T14:16:11;11.85;69.34
35085;SHT85;21267;51.032;6.998;2024-02-21T14:18:40;11.82;69.14
35085;SHT85;21267;51.032;6.998;2024-02-21T14:21:11;11.80;69.02
35085;SHT85;21267;51.032;6.998;2024-02-21T14:23:38;11.80;69.26
35085;SHT85;21267;51.032;6.998;2024-02-21T14:26:05;11.86;69.48
35085;SHT85;21267;51.032;6.998;2024-02-21T14:28:33;11.83;69.53
35085;SHT85;21267;51.032;6.998;2024-02-21T14:31:03;11.76;70.32
35085;SHT85;21267;51.032;6.998;2024-02-21T14:33:32;11.67;70.62
35085;SHT85;21267;51.032;6.998;2024-02-21T14:36:00;11.69;70.49
35085;SHT85;21267;51.032;6.998;2024-02-21T14:38:27;11.75;70.75
35085;SHT85;21267;51.032;6.998;2024-02-21T14:40:54;11.71;70.98
35085;SHT85;21267;51.032;6.998;2024-02-21T14:43:21;11.70;71.02
35085;SHT85;21267;51.032;6.998;2024-02-21T14:45:49;11.76;70.96
35085;SHT85;21267;51.032;6.998;2024-02-21T14:48:17;11.79;70.95
35085;SHT85;21267;51.032;6.998;2024-02-21T14:50:44;11.82;70.89
35085;SHT85;21267;51.032;6.998;2024-02-21T14:53:11;11.82;71.11
35085;SHT85;21267;51.032;6.998;2024-02-21T14:55:38;11.80;71.07
35085;SHT85;21267;51.032;6.998;2024-02-21T14:58:06;11.83;71.34
35085;SHT85;21267;51.032;6.998;2024-02-21T15:00:39;11.75;70.93
35085;SHT85;21267;51.032;6.998;2024-02-21T15:03:09;11.75;71.05
35085;SHT85;21267;51.032;6.998;2024-02-21T15:05:42;11.79;71.25
35085;SHT85;21267;51.032;6.998;2024-02-21T15:08:09;11.80;71.09
35085;SHT85;21267;51.032;6.998;2024-02-21T15:10:37;11.73;71.02
35085;SHT85;21267;51.032;6.998;2024-02-21T15:13:04;11.76;71.07
35085;SHT85;21267;51.032;6.998;2024-02-21T15:18:25;11.75;70.48
35085;SHT85;21267;51.032;6.998;2024-02-21T15:20:52;11.70;70.33
35085;SHT85;21267;51.032;6.998;2024-02-21T15:23:19;11.70;70.42
35085;SHT85;21267;51.032;6.998;2024-02-21T15:25:47;11.65;70.49
35085;SHT85;21267;51.032;6.998;2024-02-21T15:28:14;11.67;70.53
35085;SHT85;21267;51.032;6.998;2024-02-21T15:30:41;11.70;70.66
35085;SHT85;21267;51.032;6.998;2024-02-21T15:33:08;11.69;70.25
35085;SHT85;21267;51.032;6.998;2024-02-21T15:35:35;11.70;70.59
35085;SHT85;21267;51.032;6.998;2024-02-21T15:38:02;11.66;70.46
35085;SHT85;21267;51.032;6.998;2024-02-21T15:40:30;11.65;70.33
35085;SHT85;21267;51.032;6.998;2024-02-21T15:42:57;11.62;70.21
35085;SHT85;21267;51.032;6.998;2024-02-21T15:45:23;11.62;69.56
35085;SHT85;21267;51.032;6.998;2024-02-21T15:47:50;11.62;69.87
35085;SHT85;21267;51.032;6.998;2024-02-21T15:50:17;11.58;69.69
35085;SHT85;21267;51.032;6.998;2024-02-21T15:52:46;11.58;69.86
35085;SHT85;21267;51.032;6.998;2024-02-21T15:55:13;11.55;69.81
35085;SHT85;21267;51.032;6.998;2024-02-21T15:57:40;11.56;69.69
35085;SHT85;21267;51.032;6.998;2024-02-21T16:00:07;11.56;68.83
35085;SHT85;21267;51.032;6.998;2024-02-21T16:02:40;11.59;68.55